Cwmbran, United Kingdom
Current Conditions -  °F | °C
As of 4:50 AM on Tuesday 21 Oct 2014 (Local Time) from EGFF Reporting Station
Heavy Rain Heavy Rain  
Wind Chill: 15°   Ceiling: 700
Heat Index: 15°   Visibility: 1.9mi
Dew Point: 13°   Wind: 25mph
Humidity: 88%   Direction: 250°WSW
Pressure: 29.59"   Gusts: NA
Location:  51.65°N, 3.03°W
Report Text: EGFF 210350Z AUTO 25022KT 3100 +RA OVC007/// //////CB 15/13 Q1002 REDZ
Loading
Personal Weather Stations






























Interactive Weather Map
Tropical Storm Tracking
New forecast layout! Learn more

10-Day Weather Forecast

Advertisements
Track Severe Weather on mobile